Terminal Aerodrome Forecast
Issued by NWS Omaha/Valley, NE

Home | Current Version | Previous Version | Text Only | Print | Product List | Glossary On
Versions: 1 2 3 4 5 6 7 8 9 10 11 12 13 14 15 16
000
FTUS43 KOAX 010543
TAFLNK
TAF
KLNK 010543Z 0106/0206 VRB03KT P6SM BKN250
     FM011000 00000KT 6SM BR BKN250
      TEMPO 0111/0113 3/4SM BR SCT015
     FM011500 00000KT P6SM BKN200=

USA.gov is the U.S. government's official web portal to all federal, state and local government web resources and services.